Time;durP1;ratioP1;P1;durP2;ratioP2;P2;SDS_P1;SDS_P2;PMS_P1;PMS_P2;Temp;Humidity;BMP_temperature;BMP_pressure;BME280_temperature;BME280_humidity;BME280_pressure;Samples;Min_cycle;Max_cycle;Signal;HPM_P1;HPM_P2
2023/07/20 00:02:23;;;;;;;4.38;3.67;;;15.50;99.90;;;;;;4864206;28;90423;-31
2023/07/20 00:04:49;;;;;;;4.18;3.75;;;15.50;99.90;;;;;;4863865;28;88764;-32
2023/07/20 00:07:15;;;;;;;3.97;3.60;;;15.40;99.90;;;;;;4862822;28;90124;-43
2023/07/20 00:09:40;;;;;;;3.22;2.90;;;15.40;99.90;;;;;;4864098;28;91542;-35
2023/07/20 00:12:07;;;;;;;4.57;4.18;;;15.50;99.90;;;;;;4863071;28;90563;-40
2023/07/20 00:14:32;;;;;;;4.80;3.88;;;15.40;99.90;;;;;;4864508;28;87536;-36
2023/07/20 00:16:58;;;;;;;4.25;2.95;;;15.40;99.90;;;;;;4863428;28;89135;-34
2023/07/20 00:19:27;;;;;;;3.92;3.63;;;15.40;99.90;;;;;;4864030;28;89638;-31
2023/07/20 00:21:54;;;;;;;4.65;3.15;;;15.40;99.90;;;;;;4863521;28;89716;-34
2023/07/20 00:24:20;;;;;;;3.65;3.35;;;15.40;99.90;;;;;;4863520;28;88721;-37
2023/07/20 00:26:46;;;;;;;3.78;3.00;;;15.40;99.90;;;;;;4862941;28;90080;-35
2023/07/20 00:29:12;;;;;;;4.47;4.05;;;15.40;99.90;;;;;;4863478;28;90484;-31
2023/07/20 00:31:37;;;;;;;3.97;3.65;;;15.30;99.90;;;;;;4863346;28;89500;-31
2023/07/20 00:34:04;;;;;;;3.75;3.45;;;15.30;99.90;;;;;;4862026;28;90004;-41
2023/07/20 00:36:30;;;;;;;3.75;3.38;;;15.40;99.90;;;;;;4862748;28;90441;-34
2023/07/20 00:38:55;;;;;;;3.53;3.17;;;15.30;99.90;;;;;;4863506;28;89034;-35
2023/07/20 00:41:21;;;;;;;4.10;3.70;;;15.40;99.90;;;;;;4863009;28;88979;-37
2023/07/20 00:43:47;;;;;;;3.92;3.63;;;15.30;99.90;;;;;;4864041;28;89251;-32
2023/07/20 00:46:13;;;;;;;4.63;3.72;;;15.40;99.90;;;;;;4862375;28;89438;-38
2023/07/20 00:48:40;;;;;;;3.55;2.70;;;15.40;99.90;;;;;;4863648;28;89690;-32
2023/07/20 00:51:06;;;;;;;3.53;3.33;;;15.30;99.90;;;;;;4862594;28;90503;-38
2023/07/20 00:53:32;;;;;;;3.75;3.38;;;15.30;99.90;;;;;;4863943;28;89532;-40
2023/07/20 00:55:58;;;;;;;2.70;2.50;;;15.30;99.90;;;;;;4864117;28;88271;-34
2023/07/20 00:58:24;;;;;;;3.38;3.10;;;15.20;99.90;;;;;;4862403;28;91013;-34
2023/07/20 01:00:51;;;;;;;3.42;3.22;;;15.20;99.90;;;;;;4862763;28;90377;-33
2023/07/20 01:03:17;;;;;;;3.40;2.95;;;15.30;99.90;;;;;;4850423;28;89681;-33
2023/07/20 01:05:51;;;;;;;4.47;4.07;;;15.30;99.90;;;;;;4856249;28;90046;-41
2023/07/20 01:08:50;;;;;;;3.15;2.83;;;15.20;99.90;;;;;;4845409;28;89509;-35
2023/07/20 01:11:26;;;;;;;3.13;2.92;;;15.20;99.90;;;;;;4837298;28;89765;-36
2023/07/20 01:13:52;;;;;;;3.10;2.88;;;15.20;99.90;;;;;;4844931;28;89301;-38
2023/07/20 01:16:17;;;;;;;3.10;2.83;;;15.20;99.90;;;;;;4844733;28;90259;-33
2023/07/20 01:18:43;;;;;;;3.20;2.95;;;15.10;99.90;;;;;;4844361;28;90001;-34
2023/07/20 01:21:18;;;;;;;2.53;2.33;;;15.10;99.90;;;;;;4844389;28;89464;-35
2023/07/20 01:23:58;;;;;;;4.65;2.83;;;15.20;99.90;;;;;;4844533;28;90190;-33
2023/07/20 01:26:27;;;;;;;3.03;2.83;;;15.20;99.90;;;;;;4857583;28;88749;-38
2023/07/20 01:29:10;;;;;;;3.00;2.67;;;15.20;99.90;;;;;;4862521;28;90312;-35
2023/07/20 01:31:37;;;;;;;3.35;2.85;;;15.10;99.90;;;;;;4860799;28;89454;-36
2023/07/20 01:34:05;;;;;;;3.35;2.55;;;15.00;99.90;;;;;;4852456;28;88812;-40
2023/07/20 01:36:36;;;;;;;2.53;2.22;;;15.00;99.90;;;;;;4861863;28;90430;-36
2023/07/20 01:39:02;;;;;;;3.05;2.75;;;15.00;99.90;;;;;;4863400;28;89680;-33
2023/07/20 01:41:28;;;;;;;4.15;2.60;;;15.00;99.90;;;;;;4861419;28;89990;-37
2023/07/20 01:43:58;;;;;;;3.13;2.55;;;15.00;99.90;;;;;;4851986;28;89691;-40
2023/07/20 01:46:23;;;;;;;2.60;2.40;;;15.00;99.90;;;;;;4843302;28;91622;-33
2023/07/20 01:48:50;;;;;;;2.60;2.20;;;15.00;99.90;;;;;;4844490;28;90451;-40
2023/07/20 01:51:17;;;;;;;2.33;2.15;;;15.00;99.90;;;;;;4855494;28;89997;-39
2023/07/20 01:53:43;;;;;;;2.35;2.22;;;15.00;99.90;;;;;;4842460;28;88472;-34
2023/07/20 01:56:09;;;;;;;2.50;2.40;;;14.90;99.90;;;;;;4856673;28;90343;-36
2023/07/20 01:58:35;;;;;;;2.85;2.65;;;14.90;99.90;;;;;;4842369;28;91295;-33
2023/07/20 02:01:01;;;;;;;2.75;2.35;;;14.80;99.90;;;;;;4845662;28;88469;-32
2023/07/20 02:03:27;;;;;;;3.28;2.50;;;14.80;99.90;;;;;;4844242;28;89342;-33
2023/07/20 02:05:53;;;;;;;2.67;2.47;;;14.80;99.90;;;;;;4859733;28;90583;-32
2023/07/20 02:08:18;;;;;;;2.67;2.47;;;14.80;99.90;;;;;;4851315;28;89831;-34
2023/07/20 02:10:48;;;;;;;2.60;2.40;;;14.70;99.90;;;;;;4855837;28;90242;-32
2023/07/20 02:13:14;;;;;;;2.80;2.60;;;14.70;99.90;;;;;;4842984;28;89791;-32
2023/07/20 02:15:40;;;;;;;3.92;2.97;;;14.70;99.90;;;;;;4843775;28;91123;-42
2023/07/20 02:18:06;;;;;;;5.15;2.45;;;14.50;99.90;;;;;;4843781;28;89458;-35
2023/07/20 02:20:31;;;;;;;2.85;2.65;;;14.50;99.90;;;;;;4844162;28;89284;-37
2023/07/20 02:22:57;;;;;;;2.95;2.75;;;14.50;99.90;;;;;;4843896;28;87967;-37
2023/07/20 02:25:22;;;;;;;3.05;2.85;;;14.50;99.90;;;;;;4843532;28;90513;-36
2023/07/20 02:27:48;;;;;;;3.17;2.88;;;14.40;99.90;;;;;;4844515;28;89870;-36
2023/07/20 02:30:15;;;;;;;3.25;3.05;;;14.40;99.90;;;;;;4861981;28;91005;-35
2023/07/20 02:32:45;;;;;;;3.00;2.80;;;14.40;99.90;;;;;;4861651;28;90692;-32
2023/07/20 02:35:11;;;;;;;3.42;3.13;;;14.30;99.90;;;;;;4857367;28;88724;-32
2023/07/20 02:37:37;;;;;;;2.83;2.60;;;14.30;99.90;;;;;;4854158;28;90465;-39
2023/07/20 02:40:04;;;;;;;3.70;3.15;;;14.30;99.90;;;;;;4848958;28;90098;-39
2023/07/20 02:42:30;;;;;;;3.33;3.05;;;14.20;99.90;;;;;;4851415;28;88853;-33
2023/07/20 02:44:55;;;;;;;4.13;3.70;;;14.20;99.90;;;;;;4843659;28;90315;-40
2023/07/20 02:47:21;;;;;;;3.80;3.13;;;14.10;99.90;;;;;;4853717;28;90570;-35
2023/07/20 02:49:47;;;;;;;4.20;2.97;;;14.00;99.90;;;;;;4848618;28;89194;-34
2023/07/20 02:52:12;;;;;;;4.00;3.70;;;14.00;99.90;;;;;;4846665;28;88828;-32
2023/07/20 02:54:38;;;;;;;4.15;3.80;;;13.90;99.90;;;;;;4863969;28;89312;-39
2023/07/20 02:57:04;;;;;;;4.00;3.70;;;13.90;99.90;;;;;;4854000;28;90030;-33
2023/07/20 02:59:30;;;;;;;4.80;4.40;;;13.90;99.90;;;;;;4858883;28;89832;-31
2023/07/20 03:01:55;;;;;;;5.13;4.63;;;13.90;99.90;;;;;;4860552;28;90372;-37
2023/07/20 03:04:21;;;;;;;4.60;4.22;;;13.80;99.90;;;;;;4857469;28;90324;-32
2023/07/20 03:06:47;;;;;;;5.22;4.60;;;13.80;99.90;;;;;;4845697;28;89661;-38
2023/07/20 03:09:12;;;;;;;4.93;4.47;;;13.70;99.90;;;;;;4853366;28;91406;-31
2023/07/20 03:11:38;;;;;;;7.47;4.93;;;13.70;99.90;;;;;;4849899;28;89265;-31
2023/07/20 03:14:04;;;;;;;6.20;5.60;;;13.70;99.90;;;;;;4847424;28;91524;-40
2023/07/20 03:16:32;;;;;;;5.75;4.32;;;13.70;99.90;;;;;;4846440;28;89420;-34
2023/07/20 03:18:59;;;;;;;5.55;5.05;;;13.70;99.90;;;;;;4857268;28;89359;-33
2023/07/20 03:21:25;;;;;;;6.13;4.85;;;13.70;99.90;;;;;;4846802;28;87983;-33
2023/07/20 03:23:51;;;;;;;5.55;5.05;;;13.60;99.90;;;;;;4846049;28;90100;-32
2023/07/20 03:26:16;;;;;;;6.07;4.85;;;13.50;99.90;;;;;;4846367;28;89640;-32
2023/07/20 03:28:42;;;;;;;5.32;4.82;;;13.50;99.90;;;;;;4850508;28;90492;-33
2023/07/20 03:31:07;;;;;;;7.38;5.50;;;13.50;99.90;;;;;;4857395;28;88494;-35
2023/07/20 03:33:34;;;;;;;6.03;4.80;;;13.50;99.90;;;;;;4857797;28;90199;-34
2023/07/20 03:36:00;;;;;;;9.85;5.30;;;13.50;99.90;;;;;;4864640;28;90414;-36
2023/07/20 03:38:27;;;;;;;6.03;5.53;;;13.40;99.90;;;;;;4863828;28;89417;-40
2023/07/20 03:41:00;;;;;;;6.93;6.25;;;13.40;99.90;;;;;;4854834;28;89056;-34
2023/07/20 03:43:27;;;;;;;5.60;5.10;;;13.40;99.90;;;;;;4856910;28;90647;-33
2023/07/20 03:45:53;;;;;;;6.10;5.60;;;13.40;99.90;;;;;;4854506;28;89609;-35
2023/07/20 03:48:21;;;;;;;5.55;5.05;;;13.30;99.90;;;;;;4877558;28;89276;-34
2023/07/20 03:50:49;;;;;;;7.40;5.82;;;13.30;99.90;;;;;;4859301;28;90736;-40
2023/07/20 03:53:15;;;;;;;5.77;5.17;;;13.30;99.90;;;;;;4858260;28;89271;-35
2023/07/20 03:55:51;;;;;;;6.60;5.75;;;13.30;99.90;;;;;;4852852;28;90617;-39
2023/07/20 03:58:18;;;;;;;5.55;5.05;;;13.30;99.90;;;;;;4852144;28;89972;-34
2023/07/20 04:00:50;;;;;;;6.30;5.80;;;13.20;99.90;;;;;;4859796;28;90148;-32
2023/07/20 04:03:16;;;;;;;10.95;6.07;;;13.20;99.90;;;;;;4863970;28;89884;-39
2023/07/20 04:05:43;;;;;;;5.60;5.05;;;13.30;99.90;;;;;;4851679;28;88299;-33
2023/07/20 04:08:10;;;;;;;5.63;5.13;;;13.30;99.90;;;;;;4864505;28;89607;-36
2023/07/20 04:10:36;;;;;;;5.95;4.68;;;13.30;99.90;;;;;;4851965;28;89104;-38
2023/07/20 04:13:01;;;;;;;7.85;6.45;;;13.30;99.90;;;;;;4858116;28;90230;-32
2023/07/20 04:15:27;;;;;;;5.75;5.15;;;13.20;99.90;;;;;;4853845;28;90133;-35
2023/07/20 04:17:53;;;;;;;8.10;5.68;;;13.30;99.90;;;;;;4848213;28;91519;-37
2023/07/20 04:20:18;;;;;;;6.43;5.93;;;13.20;99.90;;;;;;4855318;28;90070;-33
2023/07/20 04:22:44;;;;;;;6.75;6.18;;;13.20;99.90;;;;;;4849228;28;90323;-35
2023/07/20 04:25:10;;;;;;;8.38;5.70;;;13.20;99.90;;;;;;4854741;28;89897;-39
2023/07/20 04:27:36;;;;;;;6.63;6.03;;;13.20;99.90;;;;;;4849824;28;90550;-38
2023/07/20 04:30:03;;;;;;;7.85;6.32;;;13.20;99.90;;;;;;4860611;28;88588;-33
2023/07/20 04:32:29;;;;;;;7.40;6.70;;;13.20;99.90;;;;;;4844183;28;90040;-39
2023/07/20 04:34:54;;;;;;;6.43;5.82;;;13.30;99.90;;;;;;4843280;28;89448;-33
2023/07/20 04:37:20;;;;;;;6.18;5.57;;;13.40;99.90;;;;;;4842914;28;89908;-33
2023/07/20 04:39:46;;;;;;;6.35;5.72;;;13.50;99.90;;;;;;4844003;28;89834;-33
2023/07/20 04:42:12;;;;;;;5.82;5.32;;;13.60;99.90;;;;;;4843480;28;90664;-37
2023/07/20 04:44:38;;;;;;;9.13;5.07;;;13.70;99.90;;;;;;4844199;28;89355;-33
2023/07/20 04:47:04;;;;;;;5.75;5.25;;;14.00;99.90;;;;;;4843201;28;90341;-35
2023/07/20 04:49:29;;;;;;;5.43;4.93;;;14.20;99.90;;;;;;4844192;28;89429;-31
2023/07/20 04:51:55;;;;;;;4.30;4.00;;;14.40;99.90;;;;;;4843407;28;89908;-32
2023/07/20 04:54:20;;;;;;;5.28;4.65;;;14.60;99.90;;;;;;4843880;28;90643;-35
2023/07/20 04:56:46;;;;;;;4.38;3.88;;;14.80;99.90;;;;;;4859078;28;88259;-35
2023/07/20 04:59:12;;;;;;;4.43;3.55;;;14.90;99.90;;;;;;4852959;28;90901;-39
2023/07/20 05:01:37;;;;;;;4.20;3.00;;;15.10;99.90;;;;;;4862262;28;89851;-31
2023/07/20 05:04:03;;;;;;;4.03;3.72;;;15.20;99.90;;;;;;4852314;28;90618;-34
2023/07/20 05:06:29;;;;;;;5.03;3.53;;;15.50;99.90;;;;;;4854965;28;90306;-44
2023/07/20 05:08:54;;;;;;;3.95;3.33;;;15.70;99.90;;;;;;4857055;28;89145;-32
2023/07/20 05:11:20;;;;;;;3.50;3.20;;;15.90;99.90;;;;;;4850925;28;89399;-37
2023/07/20 05:13:46;;;;;;;3.78;3.47;;;16.00;99.90;;;;;;4860800;28;89897;-35
2023/07/20 05:16:11;;;;;;;3.83;3.30;;;16.10;99.90;;;;;;4854539;28;89999;-33
2023/07/20 05:18:37;;;;;;;3.22;2.95;;;16.30;99.90;;;;;;4854955;28;88821;-46
2023/07/20 05:21:03;;;;;;;3.60;3.30;;;16.50;99.90;;;;;;4854942;28;89901;-35
2023/07/20 05:23:28;;;;;;;3.92;3.25;;;16.60;99.90;;;;;;4853776;28;89892;-40
2023/07/20 05:25:58;;;;;;;2.88;2.40;;;16.60;99.90;;;;;;4848544;28;89507;-41
2023/07/20 05:28:26;;;;;;;14.07;2.80;;;16.80;99.90;;;;;;4848287;28;88515;-39
2023/07/20 05:30:52;;;;;;;4.53;2.47;;;17.00;99.90;;;;;;4860963;28;90006;-38
2023/07/20 05:33:19;;;;;;;4.22;2.35;;;17.20;99.90;;;;;;4846886;28;88330;-42
2023/07/20 05:35:44;;;;;;;2.50;2.30;;;17.40;99.90;;;;;;4852909;28;90382;-37
2023/07/20 05:38:10;;;;;;;2.22;2.03;;;17.60;99.90;;;;;;4842984;28;89113;-33
2023/07/20 05:40:40;;;;;;;2.35;2.15;;;17.30;99.90;;;;;;4861299;28;89738;-42
2023/07/20 05:43:06;;;;;;;2.15;2.05;;;17.60;99.90;;;;;;4845148;28;89125;-39
2023/07/20 05:45:32;;;;;;;2.00;1.90;;;17.60;99.90;;;;;;4851976;28;89665;-40
2023/07/20 05:47:57;;;;;;;2.25;2.05;;;17.80;99.90;;;;;;4860076;28;89367;-32
2023/07/20 05:50:23;;;;;;;2.15;1.92;;;18.00;99.90;;;;;;4860671;28;90420;-32
2023/07/20 05:52:49;;;;;;;2.35;2.20;;;18.00;99.90;;;;;;4858117;28;90674;-34
2023/07/20 05:55:14;;;;;;;2.53;2.28;;;17.90;99.90;;;;;;4847406;28;90627;-39
2023/07/20 05:57:42;;;;;;;2.65;1.88;;;18.00;99.90;;;;;;4849548;28;89162;-36
2023/07/20 06:00:08;;;;;;;2.10;1.90;;;18.10;99.90;;;;;;4844743;28;90326;-39
2023/07/20 06:02:34;;;;;;;1.60;1.50;;;18.20;99.90;;;;;;4859545;28;89967;-34
2023/07/20 06:05:00;;;;;;;5.55;2.00;;;18.10;99.90;;;;;;4859827;28;90163;-38
2023/07/20 06:07:25;;;;;;;1.48;1.38;;;18.20;99.90;;;;;;4847937;28;88474;-35
2023/07/20 06:09:51;;;;;;;2.05;1.90;;;18.30;99.90;;;;;;4847998;28;90310;-38
2023/07/20 06:12:17;;;;;;;1.95;1.70;;;18.40;99.90;;;;;;4847847;28;90453;-38
2023/07/20 06:14:43;;;;;;;2.50;1.50;;;18.70;99.90;;;;;;4859787;28;89356;-33
2023/07/20 06:17:08;;;;;;;3.65;2.47;;;18.90;99.90;;;;;;4859255;28;90675;-33
2023/07/20 06:19:35;;;;;;;2.13;1.90;;;18.90;99.90;;;;;;4859446;28;90452;-42
2023/07/20 06:22:00;;;;;;;1.40;1.30;;;18.90;99.90;;;;;;4849763;28;90076;-36
2023/07/20 06:24:26;;;;;;;2.53;1.45;;;19.20;99.90;;;;;;4850556;28;89717;-40
2023/07/20 06:26:51;;;;;;;2.15;1.25;;;19.60;99.90;;;;;;4845482;28;89028;-39
2023/07/20 06:29:17;;;;;;;5.22;1.60;;;19.90;99.90;;;;;;4857455;28;90692;-33
2023/07/20 06:31:43;;;;;;;1.95;1.40;;;19.90;99.90;;;;;;4846991;28;90489;-33
2023/07/20 06:34:09;;;;;;;1.52;1.42;;;20.00;99.90;;;;;;4845186;28;89100;-34
2023/07/20 06:36:35;;;;;;;3.83;1.63;;;20.40;99.90;;;;;;4843299;28;88529;-32
2023/07/20 06:39:02;;;;;;;1.35;1.25;;;20.20;99.90;;;;;;4844722;28;90414;-37
2023/07/20 06:41:28;;;;;;;1.40;1.30;;;20.70;99.90;;;;;;4843736;28;91093;-33
2023/07/20 06:43:57;;;;;;;2.30;1.35;;;20.90;99.90;;;;;;4844109;28;90629;-36
2023/07/20 06:46:24;;;;;;;2.50;1.58;;;20.60;99.90;;;;;;4843529;28;88793;-33
2023/07/20 06:48:50;;;;;;;1.30;1.20;;;20.80;99.90;;;;;;4854202;28;88922;-33
2023/07/20 06:51:16;;;;;;;1.25;1.15;;;21.10;99.90;;;;;;4861612;28;91164;-35
2023/07/20 06:53:42;;;;;;;3.05;1.13;;;21.20;99.90;;;;;;4852970;28;89871;-35
2023/07/20 06:56:07;;;;;;;1.70;1.20;;;21.40;99.90;;;;;;4840363;29;89374;-33
2023/07/20 06:58:33;;;;;;;2.15;1.80;;;21.50;99.90;;;;;;4854613;28;91536;-32
2023/07/20 07:00:59;;;;;;;2.35;1.05;;;20.80;99.90;;;;;;4853445;28;88655;-34
2023/07/20 07:03:24;;;;;;;1.40;1.30;;;21.00;99.90;;;;;;4861746;28;89195;-34
2023/07/20 07:05:54;;;;;;;3.35;1.40;;;21.10;99.90;;;;;;4858177;28;90165;-39
2023/07/20 07:08:20;;;;;;;1.55;1.45;;;21.30;99.90;;;;;;4859685;28;90035;-39
2023/07/20 07:10:45;;;;;;;1.35;1.23;;;21.60;99.90;;;;;;4859511;28;90154;-34
2023/07/20 07:13:11;;;;;;;1.98;1.17;;;21.20;99.90;;;;;;4858171;28;89529;-38
2023/07/20 07:15:37;;;;;;;1.40;1.27;;;21.50;99.90;;;;;;4859716;28;88499;-32
2023/07/20 07:18:03;;;;;;;1.65;1.33;;;21.90;99.90;;;;;;4858552;28;90161;-32
2023/07/20 07:20:29;;;;;;;1.20;1.08;;;22.00;99.90;;;;;;4862089;28;90074;-34
2023/07/20 07:22:56;;;;;;;3.22;1.48;;;21.80;99.90;;;;;;4858795;28;90271;-35
2023/07/20 07:25:22;;;;;;;1.60;1.50;;;21.60;99.90;;;;;;4859235;28;87931;-37
2023/07/20 07:27:48;;;;;;;1.25;1.15;;;21.70;99.90;;;;;;4858854;28;90167;-34
2023/07/20 07:30:14;;;;;;;3.20;1.38;;;21.50;99.90;;;;;;4856515;28;90420;-34
2023/07/20 07:32:39;;;;;;;4.70;2.03;;;21.30;99.90;;;;;;4855388;28;90116;-38
2023/07/20 07:35:05;;;;;;;2.95;1.10;;;21.80;99.90;;;;;;4850929;28;87719;-37
2023/07/20 07:37:31;;;;;;;1.88;1.17;;;22.20;99.90;;;;;;4844354;28;90607;-32
2023/07/20 07:39:57;;;;;;;1.35;1.25;;;22.20;99.90;;;;;;4845684;28;89980;-35
2023/07/20 07:42:23;;;;;;;2.42;1.05;;;22.60;99.90;;;;;;4853473;28;91123;-35
2023/07/20 07:44:49;;;;;;;2.08;1.23;;;22.20;99.90;;;;;;4849379;28;89414;-37
2023/07/20 07:47:14;;;;;;;1.40;1.00;;;22.60;99.90;;;;;;4845093;28;89826;-32
2023/07/20 07:49:40;;;;;;;1.35;1.23;;;22.80;99.90;;;;;;4846044;28;89720;-34
2023/07/20 07:52:06;;;;;;;1.95;1.30;;;22.20;99.90;;;;;;4845657;28;90304;-34
2023/07/20 07:54:31;;;;;;;3.33;1.55;;;22.60;99.90;;;;;;4847136;28;89252;-40
2023/07/20 07:56:57;;;;;;;1.88;1.17;;;23.00;99.90;;;;;;4853795;28;90784;-39
2023/07/20 07:59:23;;;;;;;1.95;1.55;;;22.90;99.90;;;;;;4859855;28;90570;-33
2023/07/20 08:01:48;;;;;;;1.70;1.10;;;22.60;99.90;;;;;;4855504;28;89514;-36
2023/07/20 08:04:14;;;;;;;4.88;1.27;;;22.80;99.90;;;;;;4862512;28;88018;-39
2023/07/20 08:06:40;;;;;;;1.60;1.45;;;22.40;99.90;;;;;;4895431;23;91108;-37
2023/07/20 08:09:06;;;;;;;4.13;1.55;;;22.50;99.90;;;;;;4867030;28;89552;-36
2023/07/20 08:11:33;;;;;;;1.27;1.08;;;22.80;99.90;;;;;;4866199;28;88569;-34
2023/07/20 08:14:00;;;;;;;1.10;0.95;;;23.20;98.90;;;;;;4863846;28;89604;-35
2023/07/20 08:16:26;;;;;;;1.67;0.80;;;23.30;95.00;;;;;;4848679;28;90455;-41
2023/07/20 08:18:52;;;;;;;2.83;0.85;;;22.80;90.80;;;;;;4857797;28;91517;-37
2023/07/20 08:21:17;;;;;;;0.98;0.98;;;22.70;91.00;;;;;;4853458;28;91100;-34
2023/07/20 08:23:43;;;;;;;1.95;1.00;;;23.40;93.00;;;;;;4859399;28;88190;-36
2023/07/20 08:26:09;;;;;;;1.23;1.13;;;23.40;90.10;;;;;;4853826;28;90011;-38
2023/07/20 08:28:35;;;;;;;4.18;1.25;;;23.60;90.40;;;;;;4865188;28;89444;-34
2023/07/20 08:31:00;;;;;;;1.27;1.00;;;23.60;92.00;;;;;;4861533;28;89572;-37
2023/07/20 08:33:29;;;;;;;1.25;1.00;;;23.70;90.90;;;;;;4862840;28;89680;-38
2023/07/20 08:35:56;;;;;;;1.48;1.00;;;23.80;91.30;;;;;;4870546;28;90071;-37
2023/07/20 08:38:22;;;;;;;1.52;1.27;;;24.10;90.00;;;;;;4871542;28;89375;-32
2023/07/20 08:40:47;;;;;;;0.93;0.88;;;23.90;85.80;;;;;;4852173;28;89580;-34
2023/07/20 08:43:16;;;;;;;1.48;1.05;;;23.40;79.90;;;;;;4854234;28;90566;-39
2023/07/20 08:45:44;;;;;;;0.90;0.88;;;23.20;85.90;;;;;;4851905;28;90315;-38
2023/07/20 08:48:12;;;;;;;1.05;0.85;;;23.30;79.00;;;;;;4857753;28;90745;-32
2023/07/20 08:50:39;;;;;;;2.10;1.55;;;23.20;80.40;;;;;;4863042;28;89954;-32
2023/07/20 08:53:05;;;;;;;0.95;0.90;;;23.20;80.60;;;;;;4857037;28;89805;-40
2023/07/20 08:55:34;;;;;;;3.58;1.58;;;23.50;75.10;;;;;;4852950;28;91200;-34
2023/07/20 08:58:01;;;;;;;2.75;1.42;;;23.60;81.30;;;;;;4857536;28;89294;-34
2023/07/20 09:00:30;;;;;;;7.20;1.58;;;23.80;77.80;;;;;;4856643;28;90809;-37
2023/07/20 09:02:56;;;;;;;1.40;1.02;;;23.90;74.30;;;;;;4862830;28;89670;-35
2023/07/20 09:05:24;;;;;;;1.05;0.95;;;23.60;74.10;;;;;;4846409;28;90395;-40
2023/07/20 09:07:51;;;;;;;;;;;23.80;73.50;;;;;;4870944;28;89585;-35
2023/07/20 09:10:17;;;;;;;5.65;1.45;;;23.40;77.00;;;;;;4857466;28;90051;-38
2023/07/20 09:12:43;;;;;;;2.65;1.58;;;23.10;76.60;;;;;;4843053;28;90352;-33
2023/07/20 09:15:11;;;;;;;1.35;1.15;;;23.20;75.10;;;;;;4861186;28;90356;-35
2023/07/20 09:17:40;;;;;;;2.15;1.10;;;22.90;79.80;;;;;;4859157;28;91268;-36
2023/07/20 09:20:10;;;;;;;1.00;1.00;;;23.40;76.00;;;;;;4846211;28;89648;-37
2023/07/20 09:22:41;;;;;;;2.88;1.25;;;23.20;71.70;;;;;;4850819;28;88584;-37
2023/07/20 09:25:14;;;;;;;3.28;1.20;;;23.20;75.00;;;;;;4842284;28;90192;-34
2023/07/20 09:27:48;;;;;;;1.05;0.90;;;23.50;75.70;;;;;;4842569;28;89864;-39
2023/07/20 09:30:16;;;;;;;1.42;1.10;;;23.30;72.60;;;;;;4859186;28;90621;-33
2023/07/20 09:32:51;;;;;;;3.25;1.20;;;23.40;74.00;;;;;;4879134;28;90552;-37
2023/07/20 09:35:18;;;;;;;1.75;1.05;;;22.90;73.70;;;;;;4870926;28;90907;-36
2023/07/20 09:37:57;;;;;;;2.03;1.07;;;23.20;75.50;;;;;;4861178;28;88935;-32
2023/07/20 09:40:24;;;;;;;2.22;1.45;;;23.30;72.10;;;;;;4848459;28;89934;-32
2023/07/20 09:42:52;;;;;;;2.47;1.33;;;23.60;74.70;;;;;;4870247;28;89084;-35
2023/07/20 09:45:18;;;;;;;3.10;1.00;;;23.50;71.20;;;;;;4865563;28;90007;-32
2023/07/20 09:47:44;;;;;;;1.15;0.95;;;23.30;71.00;;;;;;4863597;28;89888;-32
2023/07/20 09:50:12;;;;;;;1.60;0.95;;;23.40;70.30;;;;;;4878233;28;89970;-34
2023/07/20 09:52:43;;;;;;;1.17;1.08;;;23.30;70.80;;;;;;4857167;28;89167;-33
2023/07/20 09:55:11;;;;;;;2.83;1.70;;;23.40;70.20;;;;;;4868399;28;91869;-35
2023/07/20 09:57:37;;;;;;;2.67;1.50;;;23.60;69.70;;;;;;4873907;28;90776;-38
2023/07/20 10:00:13;;;;;;;2.25;0.82;;;23.60;71.20;;;;;;4867183;28;90197;-33
2023/07/20 10:02:45;;;;;;;0.95;0.95;;;23.50;65.60;;;;;;4860765;28;89609;-34
2023/07/20 10:05:14;;;;;;;2.78;1.17;;;22.90;67.50;;;;;;4859246;28;90239;-31
2023/07/20 10:07:49;;;;;;;2.97;1.23;;;22.70;68.60;;;;;;4868370;28;90082;-33
2023/07/20 10:10:17;;;;;;;1.27;1.13;;;23.00;70.10;;;;;;4877781;28;88699;-38
2023/07/20 10:12:47;;;;;;;1.65;1.15;;;22.90;68.30;;;;;;4878698;28;88700;-37
2023/07/20 10:15:42;;;;;;;2.72;1.30;;;23.00;72.30;;;;;;4860440;28;90392;-37
2023/07/20 10:18:19;;;;;;;1.92;1.20;;;23.20;70.10;;;;;;4873257;28;89946;-36
2023/07/20 10:20:46;;;;;;;2.33;1.30;;;23.30;75.70;;;;;;4878232;28;89003;-39
2023/07/20 10:23:12;;;;;;;1.35;1.13;;;23.30;74.80;;;;;;4876847;28;90359;-37
2023/07/20 10:25:41;;;;;;;1.58;0.85;;;23.30;72.00;;;;;;4878840;28;90576;-35
2023/07/20 10:28:07;;;;;;;1.50;1.27;;;23.20;70.60;;;;;;4861076;28;89610;-36
2023/07/20 10:30:36;;;;;;;1.67;1.25;;;23.20;69.20;;;;;;4857836;28;90522;-35
2023/07/20 10:33:06;;;;;;;1.30;1.20;;;23.10;70.30;;;;;;4872141;28;88209;-35
2023/07/20 10:35:51;;;;;;;1.42;1.17;;;22.90;71.20;;;;;;4846268;28;90118;-36
2023/07/20 10:38:16;;;;;;;2.85;1.48;;;22.70;70.70;;;;;;4871326;28;90022;-37
2023/07/20 10:40:42;;;;;;;1.98;1.00;;;22.60;73.50;;;;;;4859767;28;89621;-38
2023/07/20 10:43:09;;;;;;;1.77;1.30;;;22.20;73.30;;;;;;4862020;28;89558;-35
2023/07/20 10:45:38;;;;;;;2.67;1.25;;;22.10;72.00;;;;;;4852418;28;90208;-32
2023/07/20 10:48:21;;;;;;;1.92;1.65;;;22.40;71.60;;;;;;4854283;28;90326;-40
2023/07/20 10:51:11;;;;;;;1.00;1.00;;;22.70;72.40;;;;;;4858716;28;90243;-33
2023/07/20 10:53:36;;;;;;;1.35;1.23;;;22.70;67.20;;;;;;4853324;28;89029;-39
2023/07/20 10:56:19;;;;;;;4.22;1.35;;;22.60;70.30;;;;;;4858070;28;89780;-37
2023/07/20 10:58:44;;;;;;;2.33;1.23;;;22.50;69.60;;;;;;4854191;28;89706;-33
2023/07/20 11:01:14;;;;;;;1.77;1.40;;;22.40;69.40;;;;;;4862082;28;89605;-33
2023/07/20 11:03:40;;;;;;;1.35;1.25;;;22.30;69.20;;;;;;4861433;28;89278;-32
2023/07/20 11:06:24;;;;;;;1.80;1.70;;;22.10;68.90;;;;;;4840688;28;90083;-38
2023/07/20 11:09:16;;;;;;;2.20;1.67;;;22.30;70.40;;;;;;4870753;28;90779;-32
2023/07/20 11:11:43;;;;;;;2.35;1.55;;;21.90;71.30;;;;;;4862385;28;91380;-33
2023/07/20 11:14:10;;;;;;;2.63;1.75;;;21.70;74.10;;;;;;4870315;28;90644;-36
2023/07/20 11:16:39;;;;;;;1.33;1.23;;;21.70;74.50;;;;;;4866610;28;90381;-41
2023/07/20 11:19:05;;;;;;;2.38;2.00;;;21.70;74.60;;;;;;4880210;28;89519;-39
2023/07/20 11:21:42;;;;;;;1.23;1.13;;;22.00;74.30;;;;;;4868206;28;88477;-33
2023/07/20 11:24:09;;;;;;;1.70;0.98;;;22.20;74.00;;;;;;4881345;28;89087;-39
2023/07/20 11:26:45;;;;;;;2.20;1.45;;;22.20;72.30;;;;;;4881081;28;90116;-41
2023/07/20 11:29:12;;;;;;;1.35;1.25;;;22.40;74.50;;;;;;4869118;28;90541;-40
2023/07/20 11:31:42;;;;;;;1.65;0.95;;;22.60;73.20;;;;;;4846900;28;89309;-37
2023/07/20 11:34:27;;;;;;;1.17;1.08;;;22.40;70.10;;;;;;4845079;28;87851;-36
2023/07/20 11:36:52;;;;;;;1.55;1.45;;;22.00;70.80;;;;;;4843235;28;90402;-33
2023/07/20 11:39:21;;;;;;;0.95;0.95;;;21.90;70.60;;;;;;4844327;28;90752;-36
2023/07/20 11:41:57;;;;;;;1.75;0.90;;;21.90;70.90;;;;;;4844208;28;90502;-34
2023/07/20 11:44:28;;;;;;;2.70;1.65;;;21.90;73.20;;;;;;4843792;28;88145;-37
2023/07/20 11:47:20;;;;;;;1.77;1.00;;;21.70;76.90;;;;;;4843700;28;90223;-32
2023/07/20 11:49:50;;;;;;;1.35;1.10;;;21.70;79.20;;;;;;4847807;28;89743;-34
2023/07/20 11:52:17;;;;;;;2.33;1.67;;;21.60;79.50;;;;;;4851185;28;89671;-42
2023/07/20 11:54:44;;;;;;;3.38;1.30;;;21.60;85.40;;;;;;4861899;28;88588;-34
2023/07/20 11:57:17;;;;;;;1.80;1.70;;;21.20;93.90;;;;;;4861532;28;90231;-37
2023/07/20 12:00:08;;;;;;;1.55;1.45;;;21.10;97.90;;;;;;4843656;28;89311;-35
2023/07/20 12:02:34;;;;;;;1.70;1.60;;;21.00;98.40;;;;;;4869944;28;91110;-34
2023/07/20 12:05:02;;;;;;;1.98;1.45;;;21.00;98.50;;;;;;4842971;28;88133;-40
2023/07/20 12:07:28;;;;;;;3.72;1.30;;;20.80;99.50;;;;;;4854053;28;89948;-38
2023/07/20 12:10:28;;;;;;;1.85;1.67;;;20.80;99.00;;;;;;4855399;28;89699;-42
2023/07/20 12:12:54;;;;;;;4.43;1.40;;;20.70;98.50;;;;;;4839156;28;89691;-37
2023/07/20 12:15:26;;;;;;;2.20;1.50;;;20.80;98.60;;;;;;4843314;28;90527;-34
2023/07/20 12:17:56;;;;;;;2.42;1.45;;;20.90;99.10;;;;;;4868347;28;91343;-35
2023/07/20 12:20:35;;;;;;;4.00;1.48;;;21.00;99.30;;;;;;4849247;28;89589;-32
2023/07/20 12:23:04;;;;;;;3.75;1.30;;;21.00;99.90;;;;;;4872514;28;89407;-37
2023/07/20 12:25:48;;;;;;;1.77;1.50;;;21.10;99.70;;;;;;4843352;28;89642;-32
2023/07/20 12:28:15;;;;;;;1.40;1.30;;;21.20;99.20;;;;;;4843838;28;90552;-36
2023/07/20 12:30:44;;;;;;;1.67;1.50;;;21.30;99.90;;;;;;4854155;28;92197;-36
2023/07/20 12:33:09;;;;;;;1.70;1.60;;;21.00;99.90;;;;;;4843372;28;91329;-38
2023/07/20 12:35:35;;;;;;;2.67;1.52;;;21.00;99.90;;;;;;4842317;28;89929;-33
2023/07/20 12:38:01;;;;;;;2.72;1.52;;;21.00;99.90;;;;;;4843595;28;90075;-35
2023/07/20 12:40:27;;;;;;;1.77;1.40;;;21.00;98.30;;;;;;4842532;28;89759;-36
2023/07/20 12:42:53;;;;;;;1.88;1.77;;;20.90;97.20;;;;;;4843557;28;89689;-35
2023/07/20 12:45:19;;;;;;;1.52;1.42;;;20.90;97.90;;;;;;4843579;28;88053;-33
2023/07/20 12:47:44;;;;;;;1.27;1.17;;;20.60;96.10;;;;;;4843458;28;90265;-38
2023/07/20 12:50:11;;;;;;;4.07;1.42;;;20.60;99.90;;;;;;4850358;28;89512;-33
2023/07/20 12:52:38;;;;;;;3.58;1.80;;;20.70;99.90;;;;;;4846906;28;89314;-36